Time;durP1;ratioP1;P1;durP2;ratioP2;P2;SDS_P1;SDS_P2;PMS_P1;PMS_P2;Temp;Humidity;BMP_temperature;BMP_pressure;BME280_temperature;BME280_humidity;BME280_pressure;Samples;Min_cycle;Max_cycle;Signal;HPM_P1;HPM_P2
2022/04/06 00:00:23;;;;;;;26.08;9.57;;;9.00;99.90;;;;;;5005251;28;20041;-56
2022/04/06 00:02:49;;;;;;;21.83;9.63;;;9.00;99.90;;;;;;5012109;28;20049;-57
2022/04/06 00:05:15;;;;;;;26.65;9.38;;;9.00;99.90;;;;;;5026895;28;20037;-57
2022/04/06 00:07:42;;;;;;;25.95;10.10;;;9.00;99.90;;;;;;4999258;28;20037;-56
2022/04/06 00:10:09;;;;;;;30.92;10.60;;;9.00;99.90;;;;;;4994228;28;20045;-57
2022/04/06 00:12:37;;;;;;;24.45;9.70;;;9.00;99.90;;;;;;5001953;28;20060;-57
2022/04/06 00:15:05;;;;;;;22.80;10.18;;;9.00;99.90;;;;;;4986876;28;20049;-57
2022/04/06 00:17:31;;;;;;;26.10;9.65;;;9.00;99.90;;;;;;5015033;28;20033;-58
2022/04/06 00:19:57;;;;;;;25.35;11.20;;;9.00;99.90;;;;;;5007707;28;20517;-57
2022/04/06 00:22:23;;;;;;;28.98;10.27;;;9.00;99.90;;;;;;5008722;28;20046;-57
2022/04/06 00:24:49;;;;;;;23.80;9.32;;;9.00;99.90;;;;;;4999637;28;20551;-57
2022/04/06 00:27:15;;;;;;;20.83;9.13;;;9.00;99.90;;;;;;5006686;28;20060;-58
2022/04/06 00:29:41;;;;;;;29.02;10.75;;;9.00;99.90;;;;;;5005336;28;20462;-56
2022/04/06 00:32:07;;;;;;;26.75;9.70;;;9.00;99.90;;;;;;5005540;28;20049;-58
2022/04/06 00:37:17;;;;;;;26.95;9.27;;;9.00;99.90;;;;;;5014712;28;20053;-57
2022/04/06 00:39:43;;;;;;;23.30;9.98;;;9.00;99.90;;;;;;4994271;28;20438;-57
2022/04/06 00:42:09;;;;;;;23.25;9.32;;;9.00;99.90;;;;;;4983450;28;20494;-56
2022/04/06 00:44:35;;;;;;;26.75;8.73;;;9.10;99.90;;;;;;5013676;28;20038;-57
2022/04/06 00:47:05;;;;;;;20.73;7.43;;;9.10;99.90;;;;;;5017822;28;20065;-57
2022/04/06 00:49:32;;;;;;;21.73;9.05;;;9.10;99.90;;;;;;5003218;28;20411;-57
2022/04/06 00:52:00;;;;;;;20.23;9.13;;;9.10;99.90;;;;;;5003384;28;20112;-55
2022/04/06 00:54:29;;;;;;;16.95;8.32;;;9.10;99.90;;;;;;5008630;28;20054;-57
2022/04/06 00:56:56;;;;;;;24.65;9.40;;;9.10;99.90;;;;;;5017093;28;20038;-56
2022/04/06 00:59:22;;;;;;;21.30;6.85;;;9.10;99.90;;;;;;5006931;28;20490;-55
2022/04/06 01:01:50;;;;;;;17.70;7.30;;;9.20;99.90;;;;;;4991608;28;20053;-58
2022/04/06 01:04:16;;;;;;;23.35;6.80;;;9.20;99.90;;;;;;5012924;28;20076;-56
2022/04/06 01:06:44;;;;;;;19.67;6.35;;;9.20;99.90;;;;;;5007525;28;20042;-56
2022/04/06 01:09:10;;;;;;;23.67;6.93;;;9.20;99.90;;;;;;4990801;28;20132;-58
2022/04/06 01:11:36;;;;;;;15.82;6.50;;;9.20;99.90;;;;;;5011711;28;20061;-57
2022/04/06 01:14:03;;;;;;;18.80;6.78;;;9.20;99.90;;;;;;4999864;28;20095;-57
2022/04/06 01:16:29;;;;;;;16.20;6.75;;;9.20;99.90;;;;;;4998418;28;20458;-58
2022/04/06 01:18:55;;;;;;;16.65;5.60;;;9.20;99.90;;;;;;5016008;28;20053;-56
2022/04/06 01:21:21;;;;;;;15.23;5.05;;;9.20;99.90;;;;;;4999764;28;20402;-57
2022/04/06 01:23:47;;;;;;;20.08;5.72;;;9.20;99.90;;;;;;5007835;28;20042;-57
2022/04/06 01:26:14;;;;;;;13.93;6.60;;;9.20;99.90;;;;;;5003559;28;20057;-55
2022/04/06 01:28:41;;;;;;;23.73;6.03;;;9.20;99.90;;;;;;5000185;28;20060;-57
2022/04/06 01:31:08;;;;;;;12.38;5.55;;;9.20;99.90;;;;;;5010457;28;20133;-56
2022/04/06 01:33:34;;;;;;;15.10;5.00;;;9.20;99.90;;;;;;4994541;28;20112;-56
2022/04/06 01:36:00;;;;;;;19.63;6.38;;;9.20;99.90;;;;;;5007371;28;20706;-56
2022/04/06 01:38:27;;;;;;;12.60;5.25;;;9.20;99.90;;;;;;5011372;28;20128;-57
2022/04/06 01:40:53;;;;;;;16.45;5.90;;;9.20;99.90;;;;;;5011927;28;20038;-58
2022/04/06 01:43:20;;;;;;;16.40;5.47;;;9.20;99.90;;;;;;5007074;28;20037;-57
2022/04/06 01:45:46;;;;;;;11.75;5.20;;;9.30;99.90;;;;;;5008577;28;20291;-56
2022/04/06 01:48:16;;;;;;;12.18;4.70;;;9.20;99.90;;;;;;5012180;28;20044;-58
2022/04/06 01:53:28;;;;;;;12.80;4.93;;;9.20;99.90;;;;;;5013989;28;20505;-57
2022/04/06 01:55:55;;;;;;;10.23;4.22;;;9.20;99.90;;;;;;5003843;28;20061;-57
2022/04/06 01:58:22;;;;;;;13.15;4.43;;;9.30;99.90;;;;;;5017105;28;20042;-56
2022/04/06 02:00:47;;;;;;;12.10;4.57;;;9.20;99.90;;;;;;5011769;28;20096;-56
2022/04/06 02:03:13;;;;;;;12.80;4.07;;;9.20;99.90;;;;;;5000333;28;20680;-57
2022/04/06 02:05:39;;;;;;;10.73;4.00;;;9.20;99.90;;;;;;5018245;28;20038;-57
2022/04/06 02:08:06;;;;;;;18.10;4.25;;;9.30;99.90;;;;;;5002268;28;20049;-56
2022/04/06 02:10:33;;;;;;;11.38;3.40;;;9.20;99.90;;;;;;5014593;28;20052;-56
2022/04/06 02:13:00;;;;;;;13.75;3.42;;;9.20;99.90;;;;;;5023437;28;20037;-58
2022/04/06 02:15:30;;;;;;;10.82;3.58;;;9.30;99.90;;;;;;5002558;28;20128;-58
2022/04/06 02:17:56;;;;;;;12.98;3.58;;;9.30;99.90;;;;;;5015474;28;20069;-56
2022/04/06 02:20:22;;;;;;;13.25;3.45;;;9.20;99.90;;;;;;5018600;28;20497;-57
2022/04/06 02:22:48;;;;;;;9.43;2.85;;;9.20;99.90;;;;;;5008185;28;20033;-57
2022/04/06 02:25:14;;;;;;;10.80;2.83;;;9.20;99.90;;;;;;5015961;28;20061;-56
2022/04/06 02:27:51;;;;;;;7.82;2.67;;;9.20;99.90;;;;;;5015893;28;20747;-57
2022/04/06 02:30:19;;;;;;;12.82;4.20;;;9.20;99.90;;;;;;4999025;28;20042;-57
2022/04/06 02:32:45;;;;;;;7.28;2.38;;;9.20;99.90;;;;;;5000386;28;20073;-57
2022/04/06 02:35:11;;;;;;;12.07;2.58;;;9.20;99.90;;;;;;5005600;28;20103;-57
2022/04/06 02:37:41;;;;;;;6.78;2.63;;;9.20;99.90;;;;;;5009161;28;20042;-57
2022/04/06 02:40:08;;;;;;;8.90;2.15;;;9.20;99.90;;;;;;5014086;28;20083;-57
2022/04/06 02:42:34;;;;;;;10.40;2.95;;;9.20;99.90;;;;;;5001777;28;20107;-56
2022/04/06 02:45:00;;;;;;;7.50;2.55;;;9.20;99.90;;;;;;5011609;28;20049;-57
2022/04/06 02:47:26;;;;;;;7.88;2.50;;;9.20;99.90;;;;;;5016005;28;20560;-57
2022/04/06 02:49:51;;;;;;;8.73;2.58;;;9.20;99.90;;;;;;5011907;28;20073;-57
2022/04/06 02:52:17;;;;;;;10.95;2.90;;;9.20;99.90;;;;;;4992656;28;20049;-55
2022/04/06 02:54:43;;;;;;;12.43;3.55;;;9.20;99.90;;;;;;5014188;28;20045;-57
2022/04/06 02:57:09;;;;;;;11.70;3.50;;;9.20;99.90;;;;;;5012649;28;20053;-55
2022/04/06 02:59:34;;;;;;;8.50;3.25;;;9.20;99.90;;;;;;5006740;28;20422;-56
2022/04/06 03:02:00;;;;;;;9.40;3.05;;;9.20;99.90;;;;;;5001292;28;20052;-56
2022/04/06 03:04:26;;;;;;;13.00;3.20;;;9.20;99.90;;;;;;5011823;28;20048;-56
2022/04/06 03:06:51;;;;;;;8.32;3.03;;;9.20;99.90;;;;;;4996951;28;20055;-58
2022/04/06 03:09:17;;;;;;;11.70;3.20;;;9.20;99.90;;;;;;5019291;28;20044;-56
2022/04/06 03:11:43;;;;;;;11.70;3.00;;;9.20;99.90;;;;;;5012430;28;20033;-56
2022/04/06 03:14:09;;;;;;;9.73;3.20;;;9.20;99.90;;;;;;5019032;28;20046;-57
2022/04/06 03:16:35;;;;;;;12.68;3.45;;;9.20;99.90;;;;;;5009967;28;20128;-58
2022/04/06 03:19:01;;;;;;;10.18;3.33;;;9.20;99.90;;;;;;4993597;28;20051;-57
2022/04/06 03:21:27;;;;;;;13.65;4.20;;;9.20;99.90;;;;;;5010438;28;20049;-57
2022/04/06 03:23:53;;;;;;;9.32;3.70;;;9.20;99.90;;;;;;5014324;28;20401;-58
2022/04/06 03:26:18;;;;;;;13.48;4.22;;;9.20;99.90;;;;;;5011077;28;20061;-56
2022/04/06 03:28:44;;;;;;;14.85;4.47;;;9.20;99.90;;;;;;5014019;28;20045;-57
2022/04/06 03:31:10;;;;;;;10.85;4.43;;;9.20;99.90;;;;;;5017301;28;20120;-58
2022/04/06 03:33:36;;;;;;;16.38;5.00;;;9.20;99.90;;;;;;5010123;28;20071;-55
2022/04/06 03:36:02;;;;;;;14.38;4.85;;;9.20;99.90;;;;;;5008507;28;20030;-57
2022/04/06 03:38:28;;;;;;;11.38;4.75;;;9.20;99.90;;;;;;5012581;28;20509;-58
2022/04/06 03:40:54;;;;;;;15.20;6.15;;;9.20;99.90;;;;;;5015082;28;20029;-58
2022/04/06 03:43:20;;;;;;;17.52;5.47;;;9.30;99.90;;;;;;5000194;28;20497;-57
2022/04/06 03:45:45;;;;;;;16.17;5.63;;;9.20;99.90;;;;;;5008624;28;20426;-57
2022/04/06 03:48:11;;;;;;;15.73;6.07;;;9.20;99.90;;;;;;5009905;28;20403;-58
2022/04/06 03:50:38;;;;;;;13.82;6.70;;;9.10;99.90;;;;;;5015224;28;20287;-57
2022/04/06 03:53:03;;;;;;;14.95;5.55;;;9.10;99.90;;;;;;5003558;28;20493;-57
2022/04/06 03:55:29;;;;;;;17.48;5.88;;;9.10;99.90;;;;;;4989004;28;20521;-57
2022/04/06 03:57:55;;;;;;;16.23;6.03;;;9.10;99.90;;;;;;5009703;28;20056;-58
2022/04/06 04:00:21;;;;;;;18.15;5.80;;;9.10;99.90;;;;;;5014438;28;20068;-58
2022/04/06 04:02:46;;;;;;;18.60;5.47;;;9.10;99.90;;;;;;5008821;28;20044;-57
2022/04/06 04:05:13;;;;;;;14.13;4.78;;;9.00;99.90;;;;;;5006927;28;20533;-57
2022/04/06 04:07:39;;;;;;;16.23;5.85;;;9.00;99.90;;;;;;5003403;28;20060;-58
2022/04/06 04:10:09;;;;;;;14.25;5.82;;;9.00;99.90;;;;;;5011327;28;20045;-57
2022/04/06 04:12:36;;;;;;;15.65;5.53;;;9.00;99.90;;;;;;5007337;28;20506;-58
2022/04/06 04:15:03;;;;;;;14.48;5.88;;;9.00;99.90;;;;;;5007139;28;20048;-57
2022/04/06 04:17:28;;;;;;;18.42;5.75;;;9.00;99.90;;;;;;5014407;28;20079;-57
2022/04/06 04:19:54;;;;;;;19.83;6.82;;;9.00;99.90;;;;;;5009318;28;20132;-56
2022/04/06 04:22:20;;;;;;;15.93;5.70;;;9.00;99.90;;;;;;5008374;28;20053;-57
2022/04/06 04:24:46;;;;;;;16.33;5.68;;;9.00;99.90;;;;;;5007378;28;20033;-57
2022/04/06 04:27:12;;;;;;;21.60;7.70;;;8.90;99.90;;;;;;5009904;28;20046;-57
2022/04/06 04:29:38;;;;;;;15.05;5.30;;;8.90;99.90;;;;;;4995880;28;20049;-57
2022/04/06 04:32:04;;;;;;;16.05;6.07;;;8.90;99.90;;;;;;4998357;28;20137;-57
2022/04/06 04:34:29;;;;;;;20.85;6.38;;;8.90;99.90;;;;;;5000674;28;20103;-57
2022/04/06 04:36:55;;;;;;;19.85;5.85;;;8.90;99.90;;;;;;4997295;28;20037;-57
2022/04/06 04:39:21;;;;;;;16.90;6.13;;;8.90;99.90;;;;;;4990235;28;20157;-57
2022/04/06 04:41:47;;;;;;;18.83;5.13;;;8.80;99.90;;;;;;5008523;28;20041;-57
2022/04/06 04:44:13;;;;;;;17.80;5.75;;;8.90;99.90;;;;;;4996559;28;20429;-58
2022/04/06 04:46:39;;;;;;;16.02;5.97;;;8.80;99.90;;;;;;5027824;28;20034;-57
2022/04/06 04:49:05;;;;;;;17.02;5.82;;;8.80;99.90;;;;;;5011079;28;20034;-57
2022/04/06 04:51:31;;;;;;;23.60;6.80;;;8.80;99.90;;;;;;5006685;28;20045;-57
2022/04/06 04:53:58;;;;;;;23.17;6.63;;;8.80;99.90;;;;;;5000189;28;20054;-57
2022/04/06 04:56:32;;;;;;;20.92;5.18;;;8.80;99.90;;;;;;4992717;28;20474;-56
2022/04/06 04:58:58;;;;;;;17.88;6.63;;;8.80;99.90;;;;;;5008861;28;20411;-57
2022/04/06 05:01:25;;;;;;;19.23;6.00;;;8.70;99.90;;;;;;5002182;28;20042;-56
2022/04/06 05:03:51;;;;;;;25.50;6.15;;;8.70;99.90;;;;;;5003117;28;20557;-57
2022/04/06 05:06:17;;;;;;;16.48;5.82;;;8.70;99.90;;;;;;4992739;28;20042;-57
2022/04/06 05:08:43;;;;;;;17.08;6.28;;;8.70;99.90;;;;;;5014136;28;20494;-57
2022/04/06 05:11:09;;;;;;;19.17;6.60;;;8.70;99.90;;;;;;5010704;28;20037;-56
2022/04/06 05:13:36;;;;;;;24.00;6.88;;;8.70;99.90;;;;;;5012015;28;20063;-57
2022/04/06 05:16:02;;;;;;;24.55;6.80;;;8.70;99.90;;;;;;4965083;28;20053;-57
2022/04/06 05:18:29;;;;;;;24.38;6.30;;;8.70;99.90;;;;;;5007354;28;20055;-57
2022/04/06 05:20:56;;;;;;;21.92;6.40;;;8.70;99.90;;;;;;4996993;28;20041;-57
2022/04/06 05:23:22;;;;;;;22.60;6.72;;;8.70;99.90;;;;;;5011665;28;20038;-58
2022/04/06 05:25:47;;;;;;;19.10;5.93;;;8.60;99.90;;;;;;5009796;28;20048;-57
2022/04/06 05:28:15;;;;;;;21.80;6.22;;;8.70;99.90;;;;;;5014122;28;21458;-58
2022/04/06 05:30:41;;;;;;;17.67;5.35;;;8.60;99.90;;;;;;5010533;28;20100;-56
2022/04/06 05:33:07;;;;;;;19.77;6.82;;;8.60;99.90;;;;;;5006336;28;20645;-55
2022/04/06 05:35:34;;;;;;;15.13;6.22;;;8.60;99.90;;;;;;5011557;28;20405;-56
2022/04/06 05:38:00;;;;;;;16.95;6.20;;;8.60;99.90;;;;;;5003906;28;20172;-58
2022/04/06 05:40:26;;;;;;;20.98;6.05;;;8.60;99.90;;;;;;5007217;28;20111;-57
2022/04/06 05:42:52;;;;;;;22.52;6.50;;;8.60;99.90;;;;;;5015096;28;20037;-58
2022/04/06 05:45:18;;;;;;;23.67;7.10;;;8.60;99.90;;;;;;5006833;28;20041;-57
2022/04/06 05:47:44;;;;;;;27.25;7.65;;;8.60;99.90;;;;;;5007463;28;20048;-57
2022/04/06 05:50:11;;;;;;;18.98;6.90;;;8.60;99.90;;;;;;4993058;28;20144;-57
2022/04/06 05:52:36;;;;;;;17.42;7.28;;;8.50;99.90;;;;;;5009504;28;20068;-56
2022/04/06 05:55:03;;;;;;;23.92;7.00;;;8.50;99.90;;;;;;5024363;28;20041;-57
2022/04/06 05:57:30;;;;;;;18.42;6.00;;;8.60;99.90;;;;;;5006511;28;21412;-58
2022/04/06 05:59:55;;;;;;;21.55;6.78;;;8.60;99.90;;;;;;5003232;28;20137;-58
2022/04/06 06:02:24;;;;;;;22.02;7.07;;;8.50;99.90;;;;;;4995187;28;20053;-57
2022/04/06 06:04:51;;;;;;;19.23;6.88;;;8.60;99.90;;;;;;5010236;28;20044;-58
2022/04/06 06:07:20;;;;;;;21.17;6.90;;;8.50;99.90;;;;;;5006153;28;20124;-58
2022/04/06 06:09:46;;;;;;;25.80;6.68;;;8.60;99.90;;;;;;5008280;28;20263;-58
2022/04/06 06:12:12;;;;;;;21.95;6.05;;;8.50;99.90;;;;;;5014646;28;20116;-56
2022/04/06 06:14:37;;;;;;;18.92;6.05;;;8.50;99.90;;;;;;5007138;28;20720;-56
2022/04/06 06:17:03;;;;;;;20.38;5.72;;;8.50;99.90;;;;;;5005951;28;20046;-56
2022/04/06 06:19:29;;;;;;;24.98;5.57;;;8.60;99.90;;;;;;4994092;28;20045;-56
2022/04/06 06:21:55;;;;;;;24.55;4.95;;;8.50;99.90;;;;;;5008620;28;20037;-57
2022/04/06 06:24:21;;;;;;;21.67;5.00;;;8.50;99.90;;;;;;5012642;28;20053;-57
2022/04/06 06:26:48;;;;;;;15.45;5.35;;;8.50;99.90;;;;;;4998559;28;20049;-56
2022/04/06 06:29:13;;;;;;;16.33;4.60;;;8.50;99.90;;;;;;5010658;28;20048;-58
2022/04/06 06:31:39;;;;;;;19.90;5.18;;;8.60;99.90;;;;;;5007857;28;20041;-57
2022/04/06 06:34:05;;;;;;;17.92;4.70;;;8.60;99.90;;;;;;5001108;28;20192;-57
2022/04/06 06:36:31;;;;;;;13.57;4.25;;;8.50;99.90;;;;;;5017237;28;20650;-56
2022/04/06 06:38:56;;;;;;;23.75;4.95;;;8.50;99.90;;;;;;5011843;28;20049;-57
2022/04/06 06:41:23;;;;;;;20.90;4.95;;;8.50;99.90;;;;;;5001868;28;20049;-57
2022/04/06 06:43:50;;;;;;;23.20;4.25;;;8.50;99.90;;;;;;5010490;28;20196;-57
2022/04/06 06:46:22;;;;;;;21.08;4.38;;;8.50;99.90;;;;;;5010426;28;20180;-56
2022/04/06 06:48:49;;;;;;;21.60;4.25;;;8.50;99.90;;;;;;5005282;28;20125;-55
2022/04/06 06:51:16;;;;;;;15.65;4.47;;;8.50;99.90;;;;;;5004326;28;20125;-54
2022/04/06 06:53:42;;;;;;;19.55;4.95;;;8.60;99.90;;;;;;5009134;28;20092;-57
2022/04/06 06:56:08;;;;;;;21.08;4.60;;;8.60;99.90;;;;;;5011404;28;20124;-57
2022/04/06 06:58:34;;;;;;;15.75;4.63;;;8.50;99.90;;;;;;4996181;28;20137;-56
2022/04/06 07:01:00;;;;;;;21.92;4.05;;;8.50;99.90;;;;;;5015619;28;20048;-56
2022/04/06 07:03:26;;;;;;;19.38;5.72;;;8.50;99.90;;;;;;4995967;28;20045;-56
2022/04/06 07:05:52;;;;;;;9.95;3.75;;;8.50;99.90;;;;;;5012489;28;20091;-57
2022/04/06 07:08:18;;;;;;;18.38;4.20;;;8.50;99.90;;;;;;5018550;28;20528;-56
2022/04/06 07:10:45;;;;;;;19.52;4.40;;;8.50;99.90;;;;;;5003208;28;20113;-57
2022/04/06 07:13:16;;;;;;;24.95;4.20;;;8.50;99.90;;;;;;5001002;28;20176;-56
2022/04/06 07:15:45;;;;;;;21.00;4.20;;;8.60;99.90;;;;;;5012352;28;20052;-56
2022/04/06 07:18:12;;;;;;;19.10;5.75;;;8.60;99.90;;;;;;5003633;28;20040;-56
2022/04/06 07:20:39;;;;;;;19.05;4.85;;;8.60;99.90;;;;;;5007344;28;20064;-57
2022/04/06 07:23:06;;;;;;;21.55;4.18;;;8.60;99.90;;;;;;5002880;28;20098;-56
2022/04/06 07:25:33;;;;;;;21.23;4.50;;;8.60;99.90;;;;;;5007634;28;20118;-57
2022/04/06 07:27:59;;;;;;;21.83;5.00;;;8.60;99.90;;;;;;5012046;28;20333;-57
2022/04/06 07:30:25;;;;;;;21.48;4.78;;;8.60;99.90;;;;;;5005294;28;20490;-55
2022/04/06 07:32:51;;;;;;;22.95;4.90;;;8.60;99.90;;;;;;4992236;28;20045;-57
2022/04/06 07:35:17;;;;;;;23.35;4.68;;;8.60;99.90;;;;;;5017602;28;20045;-57
2022/04/06 07:37:47;;;;;;;22.83;4.68;;;8.60;99.90;;;;;;5013406;28;20041;-55
2022/04/06 07:40:15;;;;;;;17.80;3.55;;;8.70;99.90;;;;;;5004490;28;20054;-56
2022/04/06 07:42:41;;;;;;;20.63;4.55;;;8.60;99.90;;;;;;5007448;28;20072;-57
2022/04/06 07:45:18;;;;;;;17.05;4.13;;;8.70;99.90;;;;;;5012007;28;20053;-56
2022/04/06 07:47:53;;;;;;;17.02;3.75;;;8.70;99.90;;;;;;5006757;28;20405;-56
2022/04/06 07:50:20;;;;;;;22.38;4.45;;;8.70;99.90;;;;;;5003781;28;20059;-56
2022/04/06 07:52:47;;;;;;;23.02;4.35;;;8.70;99.90;;;;;;5008918;28;20509;-57
2022/04/06 07:55:13;;;;;;;18.70;4.30;;;8.70;99.90;;;;;;5005116;28;20084;-55
2022/04/06 07:57:40;;;;;;;13.27;4.03;;;8.70;99.90;;;;;;5002874;28;20439;-57
2022/04/06 08:00:08;;;;;;;18.90;4.28;;;8.70;99.90;;;;;;5014646;28;20069;-56
2022/04/06 08:02:34;;;;;;;22.55;4.38;;;8.70;99.90;;;;;;5004218;28;20053;-56
2022/04/06 08:05:00;;;;;;;13.77;4.20;;;8.70;99.90;;;;;;5015689;28;20120;-55
2022/04/06 08:07:26;;;;;;;14.52;3.63;;;8.70;99.90;;;;;;5002536;28;20045;-56
2022/04/06 08:09:52;;;;;;;16.35;4.25;;;8.70;99.90;;;;;;4998595;28;20375;-57
2022/04/06 08:12:18;;;;;;;14.10;3.40;;;8.70;99.90;;;;;;5004044;28;20231;-56
2022/04/06 08:14:43;;;;;;;15.05;4.47;;;8.80;99.90;;;;;;5026730;28;20045;-54
2022/04/06 08:17:09;;;;;;;19.63;6.22;;;8.80;99.90;;;;;;5017823;28;20049;-57
2022/04/06 08:19:35;;;;;;;23.40;8.02;;;8.80;99.90;;;;;;5017793;28;20088;-57
2022/04/06 08:22:01;;;;;;;22.02;7.88;;;8.80;99.90;;;;;;5017409;28;20050;-54
2022/04/06 08:24:27;;;;;;;16.10;5.85;;;8.80;99.90;;;;;;5023249;28;20401;-55
2022/04/06 08:26:53;;;;;;;16.42;4.88;;;8.90;99.90;;;;;;5016687;28;20568;-57
2022/04/06 08:29:19;;;;;;;17.90;4.50;;;8.90;99.90;;;;;;5012890;28;20053;-56
2022/04/06 08:31:44;;;;;;;13.18;3.70;;;8.90;99.90;;;;;;5019085;28;20041;-56
2022/04/06 08:34:10;;;;;;;15.43;3.20;;;9.00;99.90;;;;;;5016696;28;20077;-54
2022/04/06 08:36:36;;;;;;;14.52;3.20;;;9.00;99.90;;;;;;5003666;28;20412;-56
2022/04/06 08:39:02;;;;;;;12.07;2.75;;;9.00;99.90;;;;;;5018570;28;20057;-56
2022/04/06 08:41:30;;;;;;;13.13;4.05;;;9.10;99.90;;;;;;5019185;28;20081;-56
2022/04/06 08:43:59;;;;;;;18.40;3.10;;;9.10;99.90;;;;;;5020177;28;20391;-57
2022/04/06 08:46:25;;;;;;;19.13;3.50;;;9.10;99.90;;;;;;4998919;28;20103;-57
2022/04/06 08:48:52;;;;;;;21.73;4.13;;;9.20;99.90;;;;;;5017975;28;20041;-61
2022/04/06 08:51:19;;;;;;;19.30;5.05;;;9.20;99.90;;;;;;5021092;28;20042;-59
2022/04/06 08:53:46;;;;;;;15.52;3.22;;;9.30;99.90;;;;;;5018991;28;20490;-56
2022/04/06 08:56:13;;;;;;;12.35;3.28;;;9.40;99.90;;;;;;5013693;28;20045;-56
2022/04/06 08:58:39;;;;;;;14.25;3.47;;;9.50;99.90;;;;;;5002573;28;20509;-55
2022/04/06 09:01:06;;;;;;;17.85;4.22;;;9.50;99.90;;;;;;5025231;28;20133;-56
2022/04/06 09:03:32;;;;;;;17.52;3.85;;;9.60;99.90;;;;;;5025191;28;20825;-61
2022/04/06 09:06:03;;;;;;;13.68;3.85;;;9.70;99.90;;;;;;5027903;28;20087;-56
2022/04/06 09:08:41;;;;;;;18.27;3.65;;;9.80;99.90;;;;;;5000213;28;20045;-55
2022/04/06 09:11:08;;;;;;;14.43;2.97;;;9.80;99.90;;;;;;5024632;28;20053;-56
2022/04/06 09:13:34;;;;;;;18.52;5.22;;;9.90;99.90;;;;;;5016972;28;20088;-62
2022/04/06 09:16:00;;;;;;;17.23;3.55;;;9.90;99.90;;;;;;5021097;28;20534;-62
2022/04/06 09:18:41;;;;;;;21.80;3.58;;;10.10;99.90;;;;;;5025913;28;20236;-58
2022/04/06 09:21:09;;;;;;;17.48;4.68;;;10.10;99.90;;;;;;5015273;28;20664;-57
2022/04/06 09:23:34;;;;;;;34.30;6.40;;;10.20;99.90;;;;;;5014494;28;20042;-57
2022/04/06 09:26:08;;;;;;;24.13;4.50;;;10.20;99.90;;;;;;5002188;28;20045;-62
2022/04/06 09:28:38;;;;;;;;;;;10.20;99.90;;;;;;5021882;28;20042;-57
2022/04/06 09:31:04;;;;;;;19.38;3.90;;;10.20;99.90;;;;;;5000129;28;19974;-56
2022/04/06 09:33:30;;;;;;;17.98;5.57;;;10.10;99.90;;;;;;5005052;28;20421;-56
2022/04/06 09:35:58;;;;;;;17.40;3.75;;;10.10;99.90;;;;;;5010074;28;20064;-57
2022/04/06 09:38:27;;;;;;;22.30;3.92;;;10.10;99.90;;;;;;5020102;28;20049;-62
2022/04/06 09:41:04;;;;;;;20.70;4.13;;;10.10;99.90;;;;;;5011193;28;20057;-57
2022/04/06 09:43:32;;;;;;;12.52;3.75;;;10.10;99.90;;;;;;4999256;28;20038;-56
2022/04/06 09:49:09;;;;;;;24.38;4.90;;;10.10;99.90;;;;;;5021786;28;20041;-57
2022/04/06 09:51:38;;;;;;;23.30;4.43;;;10.10;99.90;;;;;;5014597;28;20636;-57
2022/04/06 09:54:07;;;;;;;17.45;3.92;;;10.00;99.90;;;;;;5003521;28;20045;-57
2022/04/06 09:56:34;;;;;;;25.70;4.93;;;10.10;99.90;;;;;;5016377;28;20047;-62
2022/04/06 09:59:02;;;;;;;18.80;4.28;;;10.10;99.90;;;;;;5019065;28;20070;-56
2022/04/06 10:01:41;;;;;;;18.80;3.92;;;10.10;99.90;;;;;;5017139;28;20516;-57
2022/04/06 10:04:19;;;;;;;18.77;4.15;;;10.20;99.90;;;;;;5021642;28;20384;-57
2022/04/06 10:06:45;;;;;;;19.73;4.55;;;10.30;99.90;;;;;;5002270;28;20316;-60
2022/04/06 10:09:15;;;;;;;14.43;3.53;;;10.30;99.90;;;;;;5014133;28;20525;-56
2022/04/06 10:11:42;;;;;;;19.58;3.92;;;10.30;99.90;;;;;;5011274;28;20765;-56
2022/04/06 10:14:09;;;;;;;19.80;3.88;;;10.30;99.90;;;;;;5017512;28;20140;-55
2022/04/06 10:16:36;;;;;;;14.55;3.83;;;10.30;99.90;;;;;;4992157;28;20053;-56
2022/04/06 10:19:03;;;;;;;17.38;4.60;;;10.30;99.90;;;;;;5022192;28;20049;-61
2022/04/06 10:21:38;;;;;;;21.02;4.28;;;10.30;99.90;;;;;;5012970;28;20085;-57
2022/04/06 10:24:30;;;;;;;15.93;4.53;;;10.30;99.90;;;;;;5011371;28;20038;-58
2022/04/06 10:27:34;;;;;;;22.02;4.88;;;10.30;99.90;;;;;;4986182;28;20045;-60
2022/04/06 10:30:10;;;;;;;16.77;4.15;;;10.30;99.90;;;;;;5009736;28;20703;-58
2022/04/06 10:32:37;;;;;;;20.92;5.05;;;10.40;99.90;;;;;;5005513;28;20601;-61
2022/04/06 10:35:32;;;;;;;26.20;5.85;;;10.40;99.90;;;;;;5007064;28;20503;-58
2022/04/06 10:37:58;;;;;;;17.08;4.75;;;10.40;99.90;;;;;;5015126;28;20095;-57
2022/04/06 10:40:31;;;;;;;22.25;4.80;;;10.50;99.90;;;;;;5019977;28;20065;-62
2022/04/06 10:42:57;;;;;;;20.23;4.90;;;10.50;99.90;;;;;;5021133;28;20456;-57
2022/04/06 10:45:27;;;;;;;17.65;4.40;;;10.50;99.90;;;;;;5005259;28;20040;-57
2022/04/06 10:48:16;;;;;;;16.25;4.20;;;10.60;99.90;;;;;;5006312;28;20045;-58
2022/04/06 10:50:47;;;;;;;18.88;4.40;;;10.60;99.90;;;;;;5008760;28;20025;-59
2022/04/06 10:53:21;;;;;;;16.15;3.90;;;10.60;99.90;;;;;;5002750;28;20689;-57
2022/04/06 10:56:01;;;;;;;12.95;5.60;;;10.70;99.90;;;;;;5010949;28;20049;-56
2022/04/06 10:58:26;;;;;;;22.23;4.63;;;10.70;99.90;;;;;;5007267;28;20044;-62
2022/04/06 11:01:16;;;;;;;16.58;4.72;;;10.70;99.90;;;;;;4991725;28;20108;-57
2022/04/06 11:03:55;;;;;;;21.77;4.70;;;10.80;99.90;;;;;;4998612;28;20063;-57
2022/04/06 11:06:44;;;;;;;15.88;4.60;;;10.90;99.90;;;;;;5001198;28;20406;-61
2022/04/06 11:12:33;;;;;;;14.60;3.83;;;11.00;99.90;;;;;;5011713;28;20088;-57
2022/04/06 11:14:59;;;;;;;16.05;3.97;;;11.10;99.90;;;;;;5005725;28;20042;-56
2022/04/06 11:17:45;;;;;;;13.80;4.38;;;11.20;99.90;;;;;;5013898;28;20091;-56
2022/04/06 11:20:28;;;;;;;15.32;3.35;;;11.30;99.90;;;;;;5002287;28;20045;-56
2022/04/06 11:22:57;;;;;;;14.38;3.75;;;11.40;99.90;;;;;;5013336;28;20080;-56
2022/04/06 11:25:28;;;;;;;17.27;4.00;;;11.50;99.90;;;;;;5010911;28;20376;-62
2022/04/06 11:28:04;;;;;;;14.02;3.78;;;11.50;99.90;;;;;;5018161;28;20425;-56
2022/04/06 11:30:32;;;;;;;12.13;3.67;;;11.50;99.90;;;;;;5012489;28;20033;-55
2022/04/06 11:33:01;;;;;;;14.55;4.00;;;11.50;99.90;;;;;;5017509;28;20469;-56
2022/04/06 11:35:36;;;;;;;16.55;4.28;;;11.60;99.90;;;;;;4997922;28;20052;-57
2022/04/06 11:38:07;;;;;;;19.85;5.43;;;11.50;99.90;;;;;;5031923;28;20127;-57
2022/04/06 11:40:37;;;;;;;17.30;3.67;;;11.70;99.90;;;;;;5018168;28;20095;-55
2022/04/06 11:43:06;;;;;;;14.88;3.25;;;11.80;99.90;;;;;;5025375;28;20050;-56
2022/04/06 11:45:44;;;;;;;16.15;4.55;;;11.80;99.90;;;;;;5039770;23;20070;-57
2022/04/06 11:48:15;;;;;;;14.48;3.85;;;12.00;99.90;;;;;;5055889;28;20125;-56
2022/04/06 11:50:42;;;;;;;15.45;3.53;;;12.20;99.90;;;;;;5066024;28;20153;-56
2022/04/06 11:53:18;;;;;;;17.88;4.15;;;12.20;99.90;;;;;;5050206;28;20127;-56
2022/04/06 11:55:49;;;;;;;17.50;4.50;;;12.20;99.90;;;;;;5031939;28;20436;-56
2022/04/06 11:58:29;;;;;;;17.13;4.57;;;12.10;99.90;;;;;;5041076;28;20033;-59
2022/04/06 12:01:03;;;;;;;19.05;4.55;;;12.10;99.90;;;;;;5043878;28;20128;-54
2022/04/06 12:03:34;;;;;;;15.32;4.25;;;12.10;99.90;;;;;;5048606;28;20040;-56
2022/04/06 12:06:01;;;;;;;25.35;5.15;;;12.10;99.90;;;;;;5022287;28;20048;-61
2022/04/06 12:08:27;;;;;;;16.95;4.82;;;12.20;99.90;;;;;;5026028;28;20299;-58
2022/04/06 12:10:57;;;;;;;15.38;4.47;;;12.10;99.90;;;;;;5036608;28;20442;-56
2022/04/06 12:13:25;;;;;;;15.70;3.88;;;12.10;99.90;;;;;;5028506;28;20032;-56
2022/04/06 12:15:50;;;;;;;14.18;4.72;;;12.10;99.90;;;;;;5029670;28;20484;-55
2022/04/06 12:18:25;;;;;;;18.15;4.50;;;12.00;99.90;;;;;;5041854;28;20129;-58
2022/04/06 12:20:52;;;;;;;19.00;5.45;;;12.00;99.90;;;;;;5039726;28;20051;-56
2022/04/06 12:23:18;;;;;;;14.60;3.92;;;12.20;99.90;;;;;;5036994;28;20040;-55
2022/04/06 12:25:45;;;;;;;18.35;3.85;;;12.20;99.90;;;;;;5040361;28;20040;-58
2022/04/06 12:28:12;;;;;;;20.48;3.90;;;12.10;99.90;;;;;;5028538;28;20719;-57
2022/04/06 12:30:51;;;;;;;16.50;4.32;;;12.10;99.90;;;;;;5015471;28;20272;-57
2022/04/06 12:33:36;;;;;;;15.68;3.78;;;12.00;99.90;;;;;;5032421;28;20381;-55
2022/04/06 12:36:06;;;;;;;13.32;4.35;;;12.10;99.90;;;;;;5025423;28;20040;-56
2022/04/06 12:38:39;;;;;;;16.35;3.65;;;12.10;99.90;;;;;;5047864;28;20043;-57
2022/04/06 12:41:05;;;;;;;16.50;4.83;;;12.00;99.90;;;;;;5044085;28;20048;-60
2022/04/06 12:43:31;;;;;;;17.85;3.88;;;12.10;99.90;;;;;;5058107;28;20044;-56
2022/04/06 12:45:57;;;;;;;17.52;4.15;;;12.10;99.90;;;;;;5043146;28;20110;-55
2022/04/06 12:48:22;;;;;;;15.10;3.65;;;12.00;99.90;;;;;;5030026;28;20097;-56
2022/04/06 12:50:48;;;;;;;24.65;5.03;;;12.00;99.90;;;;;;5043640;28;20056;-57
2022/04/06 12:53:20;;;;;;;20.67;4.30;;;12.00;99.90;;;;;;5043162;28;20141;-62
2022/04/06 12:55:45;;;;;;;14.82;3.80;;;12.00;99.90;;;;;;5026617;28;20047;-57
2022/04/06 12:58:21;;;;;;;20.80;4.65;;;12.00;99.90;;;;;;5021114;28;20509;-57
2022/04/06 13:00:58;;;;;;;14.85;3.78;;;11.90;99.90;;;;;;5039569;28;20086;-56